SBI5449 UNOO-UNBB
Flight info
| Callsign | SBI5449 |
|---|---|
| Flight time | 1h 2m |
| Altitude | 37000 |
| Route | RUMOD6D RUMOD A844 BIKMI R234 ABESA P983 RALEG A489 GIRUR GIRUR2K |
| Aircraft | A320/M-SDE3FGHIRWY/LB1 |
Departure
| Time | 2026-04-23 14:31 |
|---|---|
| Airport | Omsk Central Airport (UNOO) |
Arrival
| Time | 2026-04-23 15:33 |
|---|---|
| Airport | Barnaul Gherman Titov International Airport (UNBB) |
| Time | Latitude | Longitude | Altitude | Speed | Heading |
|---|---|---|---|---|---|
| 2026-04-23 14:07 | 54.96304 | 73.31949 | 298 ft | 0 kts | 137° |
| 2026-04-23 14:27 | 54.96291 | 73.31970 | 301 ft | 6 kts | 136° |
| 2026-04-23 14:28 | 54.96273 | 73.32003 | 300 ft | 6 kts | 128° |
| 2026-04-23 14:28 | 54.96276 | 73.32089 | 301 ft | 7 kts | 56° |
| 2026-04-23 14:28 | 54.96329 | 73.32166 | 299 ft | 14 kts | 37° |
| 2026-04-23 14:28 | 54.96391 | 73.32236 | 300 ft | 10 kts | 20° |
| 2026-04-23 14:29 | 54.96458 | 73.32222 | 298 ft | 11 kts | 348° |
| 2026-04-23 14:29 | 54.96534 | 73.32191 | 302 ft | 12 kts | 346° |
| 2026-04-23 14:29 | 54.96623 | 73.32154 | 302 ft | 13 kts | 347° |
| 2026-04-23 14:29 | 54.96709 | 73.32119 | 306 ft | 12 kts | 347° |
| 2026-04-23 14:30 | 54.96789 | 73.32087 | 309 ft | 11 kts | 347° |
| 2026-04-23 14:30 | 54.96841 | 73.32037 | 309 ft | 7 kts | 304° |
| 2026-04-23 14:30 | 54.96841 | 73.31978 | 310 ft | 0 kts | 257° |
| 2026-04-23 14:30 | 54.96841 | 73.31977 | 310 ft | 1 kts | 257° |
| 2026-04-23 14:31 | 54.96808 | 73.31728 | 304 ft | 59 kts | 257° |
| 2026-04-23 14:31 | 54.96661 | 73.30630 | 312 ft | 124 kts | 257° |
| 2026-04-23 14:31 | 54.96447 | 73.28987 | 672 ft | 142 kts | 259° |
| 2026-04-23 14:31 | 54.96237 | 73.27349 | 1458 ft | 138 kts | 260° |
| 2026-04-23 14:32 | 54.96012 | 73.25648 | 1947 ft | 153 kts | 260° |
| 2026-04-23 14:32 | 54.95760 | 73.23737 | 2340 ft | 171 kts | 259° |
| 2026-04-23 14:32 | 54.95472 | 73.21592 | 2594 ft | 194 kts | 258° |
| 2026-04-23 14:32 | 54.95146 | 73.19179 | 2889 ft | 217 kts | 258° |
| 2026-04-23 14:33 | 54.94756 | 73.16492 | 3338 ft | 241 kts | 252° |
| 2026-04-23 14:33 | 54.93791 | 73.14023 | 4048 ft | 257 kts | 222° |
| 2026-04-23 14:33 | 54.92150 | 73.12722 | 4975 ft | 268 kts | 190° |
| 2026-04-23 14:33 | 54.90290 | 73.13188 | 5863 ft | 280 kts | 156° |
| 2026-04-23 14:34 | 54.88808 | 73.15428 | 6706 ft | 292 kts | 123° |
| 2026-04-23 14:34 | 54.88173 | 73.18789 | 7515 ft | 299 kts | 96° |
| 2026-04-23 14:34 | 54.88119 | 73.22415 | 8336 ft | 303 kts | 86° |
| 2026-04-23 14:34 | 54.88292 | 73.26099 | 9164 ft | 308 kts | 83° |
| 2026-04-23 14:35 | 54.88533 | 73.29835 | 9942 ft | 315 kts | 83° |
| 2026-04-23 14:35 | 54.88774 | 73.33743 | 10294 ft | 337 kts | 84° |
| 2026-04-23 14:35 | 54.88985 | 73.37936 | 10529 ft | 361 kts | 85° |
| 2026-04-23 14:35 | 54.89156 | 73.42386 | 10982 ft | 374 kts | 86° |
| 2026-04-23 14:36 | 54.89289 | 73.46933 | 11666 ft | 380 kts | 88° |
| 2026-04-23 14:36 | 54.89399 | 73.51548 | 12375 ft | 385 kts | 88° |
| 2026-04-23 14:36 | 54.89502 | 73.56223 | 13109 ft | 389 kts | 88° |
| 2026-04-23 14:36 | 54.89604 | 73.60942 | 13800 ft | 394 kts | 89° |
| 2026-04-23 14:37 | 54.89709 | 73.65719 | 14402 ft | 398 kts | 89° |
| 2026-04-23 14:37 | 54.89819 | 73.70553 | 15024 ft | 403 kts | 89° |
| 2026-04-23 14:37 | 54.89933 | 73.75444 | 15631 ft | 407 kts | 88° |
| 2026-04-23 14:37 | 54.90048 | 73.80392 | 16221 ft | 412 kts | 89° |
| 2026-04-23 14:38 | 54.90160 | 73.85396 | 16809 ft | 417 kts | 89° |
| 2026-04-23 14:38 | 54.90271 | 73.90447 | 17388 ft | 421 kts | 89° |
| 2026-04-23 14:38 | 54.90384 | 73.95560 | 17971 ft | 426 kts | 89° |
| 2026-04-23 14:38 | 54.90496 | 74.00722 | 18467 ft | 430 kts | 89° |
| 2026-04-23 14:39 | 54.90608 | 74.05931 | 18995 ft | 432 kts | 89° |
| 2026-04-23 14:39 | 54.90716 | 74.11161 | 19550 ft | 434 kts | 89° |
| 2026-04-23 14:39 | 54.90821 | 74.16429 | 20056 ft | 438 kts | 89° |
| 2026-04-23 14:39 | 54.90923 | 74.21729 | 20538 ft | 441 kts | 89° |
| 2026-04-23 14:40 | 54.91022 | 74.27079 | 21013 ft | 445 kts | 89° |
| 2026-04-23 14:40 | 54.91120 | 74.32482 | 21477 ft | 449 kts | 89° |
| 2026-04-23 14:40 | 54.91219 | 74.37921 | 21925 ft | 452 kts | 89° |
| 2026-04-23 14:40 | 54.91316 | 74.43412 | 22380 ft | 456 kts | 89° |
| 2026-04-23 14:41 | 54.91411 | 74.48937 | 22825 ft | 460 kts | 89° |
| 2026-04-23 14:41 | 54.91505 | 74.54519 | 23268 ft | 463 kts | 89° |
| 2026-04-23 14:41 | 54.91600 | 74.60136 | 23653 ft | 467 kts | 90° |
| 2026-04-23 14:41 | 54.91693 | 74.65787 | 24065 ft | 469 kts | 90° |
| 2026-04-23 14:42 | 54.91783 | 74.71457 | 24445 ft | 471 kts | 90° |
| 2026-04-23 14:42 | 54.91871 | 74.77153 | 24824 ft | 473 kts | 90° |
| 2026-04-23 14:42 | 54.91954 | 74.82885 | 25203 ft | 475 kts | 91° |
| 2026-04-23 14:42 | 54.92032 | 74.88639 | 25572 ft | 477 kts | 91° |
| 2026-04-23 14:43 | 54.92109 | 74.94418 | 25939 ft | 479 kts | 91° |
| 2026-04-23 14:43 | 54.92184 | 75.00219 | 26295 ft | 482 kts | 91° |
| 2026-04-23 14:43 | 54.92255 | 75.06054 | 26659 ft | 484 kts | 91° |
| 2026-04-23 14:43 | 54.92325 | 75.11921 | 27015 ft | 486 kts | 92° |
| 2026-04-23 14:44 | 54.92394 | 75.17803 | 27346 ft | 488 kts | 93° |
| 2026-04-23 14:44 | 54.92462 | 75.23720 | 27698 ft | 490 kts | 93° |
| 2026-04-23 14:44 | 54.92530 | 75.29648 | 28033 ft | 492 kts | 93° |
| 2026-04-23 14:44 | 54.92594 | 75.35531 | 28343 ft | 494 kts | 94° |
| 2026-04-23 14:45 | 54.92654 | 75.41512 | 28652 ft | 496 kts | 94° |
| 2026-04-23 14:45 | 54.92708 | 75.47523 | 28958 ft | 498 kts | 94° |
| 2026-04-23 14:45 | 54.92756 | 75.53554 | 29258 ft | 500 kts | 94° |
| 2026-04-23 14:45 | 54.92801 | 75.59612 | 29503 ft | 502 kts | 95° |
| 2026-04-23 14:46 | 54.92843 | 75.65688 | 29807 ft | 504 kts | 95° |
| 2026-04-23 14:46 | 54.92886 | 75.71779 | 30133 ft | 503 kts | 95° |
| 2026-04-23 14:46 | 54.92929 | 75.77849 | 30490 ft | 502 kts | 95° |
| 2026-04-23 14:46 | 54.92972 | 75.83918 | 30830 ft | 501 kts | 95° |
| 2026-04-23 14:47 | 54.93009 | 75.89973 | 31163 ft | 501 kts | 95° |
| 2026-04-23 14:47 | 54.93043 | 75.96035 | 31486 ft | 501 kts | 95° |
| 2026-04-23 14:47 | 54.93072 | 76.02085 | 31810 ft | 501 kts | 95° |
| 2026-04-23 14:47 | 54.93096 | 76.08139 | 32135 ft | 500 kts | 95° |
| 2026-04-23 14:48 | 54.93115 | 76.14189 | 32465 ft | 500 kts | 95° |
| 2026-04-23 14:48 | 54.93133 | 76.20231 | 32789 ft | 500 kts | 95° |
| 2026-04-23 14:48 | 54.93150 | 76.26272 | 33115 ft | 500 kts | 95° |
| 2026-04-23 14:48 | 54.93169 | 76.32315 | 33441 ft | 499 kts | 95° |
| 2026-04-23 14:49 | 54.93185 | 76.38339 | 33797 ft | 498 kts | 95° |
| 2026-04-23 14:49 | 54.93194 | 76.44347 | 34093 ft | 497 kts | 95° |
| 2026-04-23 14:49 | 54.93198 | 76.50365 | 34361 ft | 497 kts | 95° |
| 2026-04-23 14:49 | 54.93199 | 76.56371 | 34621 ft | 497 kts | 95° |
| 2026-04-23 14:50 | 54.93197 | 76.62387 | 34870 ft | 497 kts | 95° |
| 2026-04-23 14:50 | 54.93188 | 76.68297 | 35115 ft | 497 kts | 95° |
| 2026-04-23 14:50 | 54.93176 | 76.74308 | 35350 ft | 497 kts | 95° |
| 2026-04-23 14:50 | 54.93160 | 76.80323 | 35587 ft | 498 kts | 95° |
| 2026-04-23 14:51 | 54.93145 | 76.86340 | 35782 ft | 498 kts | 95° |
| 2026-04-23 14:51 | 54.93129 | 76.92364 | 35977 ft | 499 kts | 95° |
| 2026-04-23 14:51 | 54.93113 | 76.98408 | 36184 ft | 499 kts | 95° |
| 2026-04-23 14:51 | 54.93096 | 77.04436 | 36393 ft | 500 kts | 95° |
| 2026-04-23 14:52 | 54.93073 | 77.10478 | 36594 ft | 500 kts | 95° |
| 2026-04-23 14:52 | 54.93048 | 77.16528 | 36776 ft | 501 kts | 95° |
| 2026-04-23 14:52 | 54.92984 | 77.28656 | 36817 ft | 502 kts | 95° |
| 2026-04-23 14:53 | 54.92909 | 77.40778 | 36803 ft | 502 kts | 95° |
| 2026-04-23 14:53 | 54.92809 | 77.52919 | 36810 ft | 502 kts | 95° |
| 2026-04-23 14:54 | 54.91856 | 77.64751 | 36810 ft | 489 kts | 113° |
| 2026-04-23 14:54 | 54.89276 | 77.75502 | 36771 ft | 480 kts | 122° |
| 2026-04-23 14:55 | 54.86424 | 77.85993 | 36789 ft | 480 kts | 122° |
| 2026-04-23 14:55 | 54.83566 | 77.96466 | 36799 ft | 480 kts | 122° |
| 2026-04-23 14:56 | 54.80703 | 78.06925 | 36788 ft | 480 kts | 122° |
| 2026-04-23 14:56 | 54.77832 | 78.17369 | 36795 ft | 480 kts | 123° |
| 2026-04-23 14:57 | 54.74952 | 78.27780 | 36795 ft | 479 kts | 123° |
| 2026-04-23 14:57 | 54.72081 | 78.38095 | 36798 ft | 479 kts | 123° |
| 2026-04-23 14:58 | 54.69189 | 78.48472 | 36774 ft | 479 kts | 123° |
| 2026-04-23 14:58 | 54.66291 | 78.58821 | 36783 ft | 478 kts | 123° |
| 2026-04-23 14:59 | 54.63381 | 78.69136 | 36790 ft | 478 kts | 123° |
| 2026-04-23 14:59 | 54.60473 | 78.79425 | 36779 ft | 477 kts | 123° |
| 2026-04-23 15:00 | 54.57559 | 78.89715 | 36779 ft | 477 kts | 123° |
| 2026-04-23 15:00 | 54.54631 | 78.99980 | 36780 ft | 477 kts | 123° |
| 2026-04-23 15:01 | 54.51691 | 79.10217 | 36784 ft | 477 kts | 123° |
| 2026-04-23 15:01 | 54.48744 | 79.20422 | 36758 ft | 476 kts | 123° |
| 2026-04-23 15:02 | 54.46270 | 79.28967 | 36761 ft | 476 kts | 123° |
| 2026-04-23 15:02 | 54.43336 | 79.39097 | 36767 ft | 477 kts | 123° |
| 2026-04-23 15:03 | 54.40376 | 79.49274 | 36761 ft | 476 kts | 123° |
| 2026-04-23 15:03 | 54.37398 | 79.59425 | 36762 ft | 476 kts | 123° |
| 2026-04-23 15:04 | 54.34421 | 79.69569 | 36761 ft | 476 kts | 123° |
| 2026-04-23 15:04 | 54.31432 | 79.79692 | 36706 ft | 476 kts | 123° |
| 2026-04-23 15:05 | 54.28438 | 79.89794 | 36712 ft | 476 kts | 123° |
| 2026-04-23 15:05 | 54.25427 | 79.99896 | 36713 ft | 477 kts | 123° |
| 2026-04-23 15:06 | 54.22405 | 80.09999 | 36719 ft | 478 kts | 123° |
| 2026-04-23 15:06 | 54.19378 | 80.20101 | 36726 ft | 478 kts | 123° |
| 2026-04-23 15:07 | 54.16333 | 80.30190 | 36721 ft | 478 kts | 124° |
| 2026-04-23 15:07 | 54.13278 | 80.40259 | 36719 ft | 478 kts | 124° |
| 2026-04-23 15:08 | 54.10220 | 80.50332 | 36671 ft | 479 kts | 123° |
| 2026-04-23 15:09 | 54.05604 | 80.65437 | 36689 ft | 480 kts | 124° |
| 2026-04-23 15:09 | 54.02523 | 80.75434 | 36685 ft | 480 kts | 124° |
| 2026-04-23 15:10 | 53.99420 | 80.85507 | 36438 ft | 481 kts | 124° |
| 2026-04-23 15:10 | 53.97873 | 80.90533 | 36170 ft | 479 kts | 124° |
| 2026-04-23 15:10 | 53.96328 | 80.95530 | 35901 ft | 478 kts | 124° |
| 2026-04-23 15:10 | 53.94780 | 81.00511 | 35649 ft | 476 kts | 124° |
| 2026-04-23 15:11 | 53.93236 | 81.05473 | 35382 ft | 475 kts | 124° |
| 2026-04-23 15:11 | 53.91688 | 81.10424 | 35130 ft | 475 kts | 124° |
| 2026-04-23 15:11 | 53.90139 | 81.15371 | 34861 ft | 475 kts | 124° |
| 2026-04-23 15:11 | 53.88590 | 81.20324 | 34613 ft | 475 kts | 124° |
| 2026-04-23 15:12 | 53.87042 | 81.25266 | 34369 ft | 473 kts | 125° |
| 2026-04-23 15:12 | 53.85498 | 81.30176 | 34125 ft | 472 kts | 125° |
| 2026-04-23 15:12 | 53.83954 | 81.35071 | 33890 ft | 470 kts | 125° |
| 2026-04-23 15:12 | 53.82413 | 81.39948 | 33649 ft | 469 kts | 125° |
| 2026-04-23 15:13 | 53.80872 | 81.44808 | 33367 ft | 469 kts | 125° |
| 2026-04-23 15:13 | 53.79330 | 81.49666 | 33101 ft | 469 kts | 125° |
| 2026-04-23 15:13 | 53.77789 | 81.54520 | 32831 ft | 469 kts | 125° |
| 2026-04-23 15:13 | 53.76242 | 81.59380 | 32365 ft | 470 kts | 125° |
| 2026-04-23 15:14 | 53.74678 | 81.64273 | 31232 ft | 477 kts | 124° |
| 2026-04-23 15:14 | 53.73096 | 81.69209 | 30334 ft | 479 kts | 124° |
| 2026-04-23 15:14 | 53.71511 | 81.74152 | 29140 ft | 477 kts | 124° |
| 2026-04-23 15:14 | 53.69943 | 81.79046 | 28598 ft | 469 kts | 124° |
| 2026-04-23 15:15 | 53.68402 | 81.83859 | 27921 ft | 464 kts | 124° |
| 2026-04-23 15:15 | 53.66871 | 81.88616 | 27267 ft | 459 kts | 124° |
| 2026-04-23 15:15 | 53.65352 | 81.93316 | 26613 ft | 455 kts | 124° |
| 2026-04-23 15:15 | 53.63843 | 81.97975 | 25971 ft | 451 kts | 124° |
| 2026-04-23 15:16 | 53.62344 | 82.02583 | 25341 ft | 447 kts | 124° |
| 2026-04-23 15:16 | 53.60856 | 82.07148 | 24711 ft | 443 kts | 124° |
| 2026-04-23 15:16 | 53.59381 | 82.11673 | 24091 ft | 439 kts | 123° |
| 2026-04-23 15:16 | 53.57912 | 82.16172 | 23470 ft | 438 kts | 123° |
| 2026-04-23 15:17 | 53.56691 | 82.20864 | 22775 ft | 436 kts | 112° |
| 2026-04-23 15:17 | 53.55993 | 82.25742 | 22203 ft | 423 kts | 102° |
| 2026-04-23 15:17 | 53.55783 | 82.30589 | 21687 ft | 412 kts | 94° |
| 2026-04-23 15:17 | 53.55718 | 82.35396 | 21169 ft | 410 kts | 95° |
| 2026-04-23 15:18 | 53.55640 | 82.40169 | 20674 ft | 406 kts | 95° |
| 2026-04-23 15:18 | 53.55557 | 82.44899 | 20188 ft | 403 kts | 95° |
| 2026-04-23 15:18 | 53.55471 | 82.49587 | 19720 ft | 400 kts | 95° |
| 2026-04-23 15:18 | 53.55383 | 82.54246 | 19256 ft | 397 kts | 95° |
| 2026-04-23 15:19 | 53.55295 | 82.58808 | 18803 ft | 394 kts | 94° |
| 2026-04-23 15:19 | 53.55206 | 82.63399 | 18335 ft | 392 kts | 94° |
| 2026-04-23 15:19 | 53.55119 | 82.67968 | 17841 ft | 390 kts | 94° |
| 2026-04-23 15:19 | 53.55033 | 82.72518 | 17333 ft | 387 kts | 94° |
| 2026-04-23 15:20 | 53.54945 | 82.77025 | 16836 ft | 385 kts | 94° |
| 2026-04-23 15:20 | 53.54815 | 82.81497 | 16355 ft | 381 kts | 99° |
| 2026-04-23 15:20 | 53.54327 | 82.85835 | 15882 ft | 376 kts | 109° |
| 2026-04-23 15:20 | 53.53447 | 82.89943 | 15368 ft | 371 kts | 120° |
| 2026-04-23 15:21 | 53.52301 | 82.93806 | 14863 ft | 369 kts | 122° |
| 2026-04-23 15:21 | 53.51144 | 82.97651 | 14358 ft | 369 kts | 122° |
| 2026-04-23 15:21 | 53.49988 | 83.01499 | 13836 ft | 369 kts | 122° |
| 2026-04-23 15:21 | 53.48835 | 83.05344 | 13302 ft | 369 kts | 122° |
| 2026-04-23 15:22 | 53.47680 | 83.09186 | 12745 ft | 368 kts | 123° |
| 2026-04-23 15:22 | 53.46526 | 83.13010 | 12214 ft | 366 kts | 123° |
| 2026-04-23 15:22 | 53.45377 | 83.16816 | 11675 ft | 365 kts | 123° |
| 2026-04-23 15:22 | 53.44384 | 83.20752 | 11133 ft | 372 kts | 110° |
| 2026-04-23 15:23 | 53.44091 | 83.25099 | 10566 ft | 382 kts | 91° |
| 2026-04-23 15:23 | 53.44662 | 83.29435 | 10254 ft | 379 kts | 70° |
| 2026-04-23 15:23 | 53.45972 | 83.33194 | 10130 ft | 369 kts | 51° |
| 2026-04-23 15:23 | 53.47789 | 83.36122 | 10004 ft | 357 kts | 40° |
| 2026-04-23 15:24 | 53.49544 | 83.38991 | 9881 ft | 347 kts | 49° |
| 2026-04-23 15:24 | 53.51017 | 83.42124 | 9638 ft | 336 kts | 58° |
| 2026-04-23 15:24 | 53.52201 | 83.45496 | 9040 ft | 335 kts | 67° |
| 2026-04-23 15:24 | 53.53061 | 83.49038 | 8436 ft | 329 kts | 76° |
| 2026-04-23 15:25 | 53.53626 | 83.52768 | 7838 ft | 321 kts | 85° |
| 2026-04-23 15:25 | 53.53877 | 83.56392 | 7287 ft | 312 kts | 92° |
| 2026-04-23 15:25 | 53.53848 | 83.59982 | 6736 ft | 303 kts | 101° |
| 2026-04-23 15:25 | 53.53560 | 83.63439 | 6211 ft | 294 kts | 109° |
| 2026-04-23 15:26 | 53.53038 | 83.66712 | 5664 ft | 286 kts | 116° |
| 2026-04-23 15:26 | 53.52324 | 83.69717 | 5249 ft | 264 kts | 123° |
| 2026-04-23 15:26 | 53.51504 | 83.72321 | 4961 ft | 244 kts | 130° |
| 2026-04-23 15:26 | 53.50578 | 83.74624 | 4550 ft | 232 kts | 137° |
| 2026-04-23 15:27 | 53.49580 | 83.76652 | 4136 ft | 219 kts | 142° |
| 2026-04-23 15:27 | 53.48557 | 83.78384 | 3792 ft | 199 kts | 146° |
| 2026-04-23 15:27 | 53.47544 | 83.79833 | 3420 ft | 184 kts | 152° |
| 2026-04-23 15:27 | 53.46560 | 83.81033 | 3095 ft | 167 kts | 152° |
| 2026-04-23 15:28 | 53.45618 | 83.81960 | 3032 ft | 148 kts | 164° |
| 2026-04-23 15:28 | 53.44660 | 83.82210 | 2984 ft | 136 kts | 188° |
| 2026-04-23 15:28 | 53.43763 | 83.81794 | 2938 ft | 134 kts | 209° |
| 2026-04-23 15:28 | 53.43040 | 83.80815 | 2906 ft | 134 kts | 230° |
| 2026-04-23 15:29 | 53.42601 | 83.79429 | 2851 ft | 137 kts | 244° |
| 2026-04-23 15:29 | 53.42245 | 83.77960 | 2774 ft | 136 kts | 243° |
| 2026-04-23 15:29 | 53.41887 | 83.76503 | 2714 ft | 135 kts | 243° |
| 2026-04-23 15:29 | 53.41529 | 83.75047 | 2651 ft | 135 kts | 243° |
| 2026-04-23 15:30 | 53.41171 | 83.73589 | 2572 ft | 135 kts | 243° |
| 2026-04-23 15:30 | 53.40814 | 83.72136 | 2520 ft | 135 kts | 243° |
| 2026-04-23 15:30 | 53.40459 | 83.70685 | 2420 ft | 135 kts | 243° |
| 2026-04-23 15:30 | 53.40103 | 83.69236 | 2252 ft | 135 kts | 243° |
| 2026-04-23 15:31 | 53.39750 | 83.67791 | 2123 ft | 133 kts | 243° |
| 2026-04-23 15:31 | 53.39401 | 83.66368 | 2035 ft | 133 kts | 243° |
| 2026-04-23 15:31 | 53.39045 | 83.64918 | 1887 ft | 135 kts | 243° |
| 2026-04-23 15:31 | 53.38692 | 83.63472 | 1721 ft | 135 kts | 242° |
| 2026-04-23 15:32 | 53.38334 | 83.62026 | 1540 ft | 133 kts | 243° |
| 2026-04-23 15:32 | 53.37967 | 83.60595 | 1373 ft | 134 kts | 244° |
| 2026-04-23 15:32 | 53.37602 | 83.59166 | 1217 ft | 132 kts | 247° |
| 2026-04-23 15:32 | 53.37269 | 83.57728 | 1082 ft | 133 kts | 247° |
| 2026-04-23 15:33 | 53.36906 | 83.56316 | 908 ft | 133 kts | 246° |
| 2026-04-23 15:33 | 53.36571 | 83.54972 | 829 ft | 108 kts | 247° |
| 2026-04-23 15:33 | 53.36348 | 83.54082 | 835 ft | 58 kts | 247° |
| 2026-04-23 15:33 | 53.36274 | 83.53781 | 832 ft | 20 kts | 248° |
| 2026-04-23 15:34 | 53.36220 | 83.53564 | 828 ft | 21 kts | 247° |
| 2026-04-23 15:34 | 53.36162 | 83.53334 | 831 ft | 22 kts | 247° |
| 2026-04-23 15:34 | 53.36125 | 83.53221 | 834 ft | 9 kts | 219° |
| 2026-04-23 15:34 | 53.36066 | 83.53223 | 833 ft | 9 kts | 159° |
| 2026-04-23 15:35 | 53.36017 | 83.53258 | 832 ft | 7 kts | 156° |
| 2026-04-23 15:35 | 53.35978 | 83.53286 | 830 ft | 6 kts | 157° |
| 2026-04-23 15:35 | 53.35946 | 83.53309 | 832 ft | 4 kts | 157° |
| 2026-04-23 15:35 | 53.35910 | 83.53333 | 833 ft | 8 kts | 159° |
| 2026-04-23 15:36 | 53.35877 | 83.53403 | 833 ft | 7 kts | 96° |
| 2026-04-23 15:36 | 53.35887 | 83.53546 | 829 ft | 14 kts | 81° |
| 2026-04-23 15:36 | 53.35900 | 83.53692 | 833 ft | 9 kts | 79° |
| 2026-04-23 15:36 | 53.35949 | 83.53745 | 833 ft | 8 kts | 355° |
| 2026-04-23 15:37 | 53.36011 | 83.53730 | 830 ft | 9 kts | 352° |
| 2026-04-23 15:37 | 53.36070 | 83.53732 | 833 ft | 7 kts | 26° |
| 2026-04-23 15:37 | 53.36091 | 83.53783 | 833 ft | 10 kts | 65° |
| 2026-04-23 15:37 | 53.36124 | 83.53908 | 833 ft | 8 kts | 66° |
| 2026-04-23 15:38 | 53.36146 | 83.53996 | 833 ft | 12 kts | 68° |
| 2026-04-23 15:38 | 53.36181 | 83.54140 | 829 ft | 13 kts | 67° |
| 2026-04-23 15:38 | 53.36226 | 83.54322 | 833 ft | 19 kts | 68° |
| 2026-04-23 15:38 | 53.36261 | 83.54461 | 833 ft | 8 kts | 70° |
| 2026-04-23 15:39 | 53.36243 | 83.54527 | 828 ft | 6 kts | 136° |
| 2026-04-23 15:39 | 53.36228 | 83.54579 | 833 ft | 5 kts | 88° |
| 2026-04-23 15:39 | 53.36236 | 83.54623 | 830 ft | 3 kts | 67° |
| 2026-04-23 15:39 | 53.36241 | 83.54646 | 830 ft | 2 kts | 69° |
| 2026-04-23 15:40 | 53.36245 | 83.54663 | 832 ft | 2 kts | 69° |
| 2026-04-23 15:40 | 53.36248 | 83.54676 | 833 ft | 0 kts | 69° |